Seyfert, Pennsylvania
Current Conditions -  °F | °C
As of 10:54 AM on Thursday 23 Oct 2014 (Local Time) from KRDG Reporting Station
Light Rain Light Rain  
Wind Chill: 53°   Ceiling: 2500
Heat Index: 53°   Visibility: 10mi
Dew Point: 43°   Wind: 12mph
Humidity: 69%   Direction: 340°NNW
Pressure: 29.84"   Gusts: 20mph
Location:  40.2313°N, 75.8555°W
Report Text: KRDG 231454Z 34010G17KT 10SM -RA OVC025 12/06 A2984 RMK AO2 RAB50 SLP108 P0000 60000 T01170061 52005
Loading
Personal Weather Stations






























Interactive Weather Map
Tropical Storm Tracking
New forecast layout! Learn more

10-Day Weather Forecast

Advertisements
Track Severe Weather on mobile